sensor_id;sensor_type;location;lat;lon;timestamp;pressure;altitude;pressure_sealevel;temperature;humidity
47522;BME280;32291;52.010;4.446;2023-08-21T00:00:39;78306.81;;;-144.67;100.00
47522;BME280;32291;52.010;4.446;2023-08-21T00:01:42;78300.38;;;-144.67;100.00
47522;BME280;32291;52.010;4.446;2023-08-21T00:02:44;78308.94;;;-144.67;100.00
47522;BME280;32291;52.010;4.446;2023-08-21T00:03:47;78308.94;;;-144.67;100.00
47522;BME280;32291;52.010;4.446;2023-08-21T00:04:52;78308.94;;;-144.67;100.00
47522;BME280;32291;52.010;4.446;2023-08-21T00:05:54;78313.22;;;-144.67;100.00
47522;BME280;32291;52.010;4.446;2023-08-21T00:06:56;78311.09;;;-144.67;100.00
47522;BME280;32291;52.010;4.446;2023-08-21T00:07:58;78313.22;;;-144.67;100.00
47522;BME280;32291;52.010;4.446;2023-08-21T00:09:02;78315.38;;;-144.67;100.00
47522;BME280;32291;52.010;4.446;2023-08-21T00:10:09;78321.78;;;-144.67;100.00
47522;BME280;32291;52.010;4.446;2023-08-21T00:11:12;78319.66;;;-144.67;100.00
47522;BME280;32291;52.010;4.446;2023-08-21T00:12:19;78330.34;;;-144.67;100.00
47522;BME280;32291;52.010;4.446;2023-08-21T00:13:22;78328.22;;;-144.67;100.00
47522;BME280;32291;52.010;4.446;2023-08-21T00:14:29;78330.34;;;-144.67;100.00
47522;BME280;32291;52.010;4.446;2023-08-21T00:15:32;78334.63;;;-144.67;100.00
47522;BME280;32291;52.010;4.446;2023-08-21T00:16:39;78332.50;;;-144.67;100.00
47522;BME280;32291;52.010;4.446;2023-08-21T00:17:47;78332.50;;;-144.67;100.00
47522;BME280;32291;52.010;4.446;2023-08-21T00:18:49;78330.34;;;-144.67;100.00
47522;BME280;32291;52.010;4.446;2023-08-21T00:19:57;78330.34;;;-144.67;100.00
47522;BME280;32291;52.010;4.446;2023-08-21T00:21:04;78330.34;;;-144.67;100.00
47522;BME280;32291;52.010;4.446;2023-08-21T00:22:06;78330.34;;;-144.67;100.00
47522;BME280;32291;52.010;4.446;2023-08-21T00:23:09;78326.06;;;-144.67;100.00
47522;BME280;32291;52.010;4.446;2023-08-21T00:24:11;78328.22;;;-144.67;100.00
47522;BME280;32291;52.010;4.446;2023-08-21T00:25:14;78319.66;;;-144.67;100.00
47522;BME280;32291;52.010;4.446;2023-08-21T00:26:17;78323.94;;;-144.67;100.00
47522;BME280;32291;52.010;4.446;2023-08-21T00:27:25;78321.78;;;-144.67;100.00
47522;BME280;32291;52.010;4.446;2023-08-21T00:28:32;78323.94;;;-144.67;100.00
47522;BME280;32291;52.010;4.446;2023-08-21T00:29:42;78323.94;;;-144.67;100.00
47522;BME280;32291;52.010;4.446;2023-08-21T00:30:49;78323.94;;;-144.67;100.00
47522;BME280;32291;52.010;4.446;2023-08-21T00:31:56;78323.94;;;-144.67;100.00
47522;BME280;32291;52.010;4.446;2023-08-21T00:33:03;78313.22;;;-144.67;100.00
47522;BME280;32291;52.010;4.446;2023-08-21T00:34:10;78319.66;;;-144.67;100.00
47522;BME280;32291;52.010;4.446;2023-08-21T00:35:18;78321.78;;;-144.67;100.00
47522;BME280;32291;52.010;4.446;2023-08-21T00:36:20;78321.78;;;-144.67;100.00
47522;BME280;32291;52.010;4.446;2023-08-21T00:37:23;78326.06;;;-144.67;100.00
47522;BME280;32291;52.010;4.446;2023-08-21T00:38:26;78330.34;;;-144.67;100.00
47522;BME280;32291;52.010;4.446;2023-08-21T00:39:28;78330.34;;;-144.67;100.00
47522;BME280;32291;52.010;4.446;2023-08-21T00:40:31;78328.22;;;-144.67;100.00
47522;BME280;32291;52.010;4.446;2023-08-21T00:41:34;78328.22;;;-144.67;100.00
47522;BME280;32291;52.010;4.446;2023-08-21T00:42:37;78328.22;;;-144.67;100.00
47522;BME280;32291;52.010;4.446;2023-08-21T00:43:39;78332.50;;;-144.67;100.00
47522;BME280;32291;52.010;4.446;2023-08-21T00:44:42;78328.22;;;-144.67;100.00
47522;BME280;32291;52.010;4.446;2023-08-21T00:45:46;78321.78;;;-144.67;100.00
47522;BME280;32291;52.010;4.446;2023-08-21T00:46:49;78330.34;;;-144.67;100.00
47522;BME280;32291;52.010;4.446;2023-08-21T00:47:52;78326.06;;;-144.67;100.00
47522;BME280;32291;52.010;4.446;2023-08-21T00:48:58;78321.78;;;-144.67;100.00
47522;BME280;32291;52.010;4.446;2023-08-21T00:50:01;78317.50;;;-144.67;100.00
47522;BME280;32291;52.010;4.446;2023-08-21T00:51:05;78321.78;;;-144.67;100.00
47522;BME280;32291;52.010;4.446;2023-08-21T00:52:15;78313.22;;;-144.67;100.00
47522;BME280;32291;52.010;4.446;2023-08-21T00:53:18;78317.50;;;-144.67;100.00
47522;BME280;32291;52.010;4.446;2023-08-21T00:54:21;78317.50;;;-144.67;100.00
47522;BME280;32291;52.010;4.446;2023-08-21T00:55:23;78317.50;;;-144.67;100.00
47522;BME280;32291;52.010;4.446;2023-08-21T00:56:26;78319.66;;;-144.67;100.00
47522;BME280;32291;52.010;4.446;2023-08-21T00:57:29;78321.78;;;-144.67;100.00
47522;BME280;32291;52.010;4.446;2023-08-21T00:58:31;78321.78;;;-144.67;100.00
47522;BME280;32291;52.010;4.446;2023-08-21T00:59:34;78326.06;;;-144.67;100.00
47522;BME280;32291;52.010;4.446;2023-08-21T01:00:36;78328.22;;;-144.67;100.00
47522;BME280;32291;52.010;4.446;2023-08-21T01:01:39;78326.06;;;-144.67;100.00
47522;BME280;32291;52.010;4.446;2023-08-21T01:02:42;78334.63;;;-144.67;100.00
47522;BME280;32291;52.010;4.446;2023-08-21T01:03:45;78334.63;;;-144.67;100.00
47522;BME280;32291;52.010;4.446;2023-08-21T01:04:47;78332.50;;;-144.67;100.00
47522;BME280;32291;52.010;4.446;2023-08-21T01:05:50;78336.78;;;-144.67;100.00
47522;BME280;32291;52.010;4.446;2023-08-21T01:06:52;78330.34;;;-144.67;100.00
47522;BME280;32291;52.010;4.446;2023-08-21T01:08:03;78334.63;;;-144.67;100.00
47522;BME280;32291;52.010;4.446;2023-08-21T01:12:39;78336.78;;;-144.67;100.00
47522;BME280;32291;52.010;4.446;2023-08-21T01:14:03;78343.19;;;-144.67;100.00
47522;BME280;32291;52.010;4.446;2023-08-21T01:15:09;78341.06;;;-144.67;100.00
47522;BME280;32291;52.010;4.446;2023-08-21T01:16:14;78345.34;;;-144.67;100.00
47522;BME280;32291;52.010;4.446;2023-08-21T01:17:19;78343.19;;;-144.67;100.00
47522;BME280;32291;52.010;4.446;2023-08-21T01:18:24;78338.91;;;-144.67;100.00
47522;BME280;32291;52.010;4.446;2023-08-21T01:19:41;78343.19;;;-144.67;100.00
47522;BME280;32291;52.010;4.446;2023-08-21T01:20:44;78347.47;;;-144.67;100.00
47522;BME280;32291;52.010;4.446;2023-08-21T01:21:46;78345.34;;;-144.67;100.00
47522;BME280;32291;52.010;4.446;2023-08-21T01:22:49;78347.47;;;-144.67;100.00
47522;BME280;32291;52.010;4.446;2023-08-21T01:23:52;78345.34;;;-144.67;100.00
47522;BME280;32291;52.010;4.446;2023-08-21T01:24:55;78347.47;;;-144.67;100.00
47522;BME280;32291;52.010;4.446;2023-08-21T01:26:03;78349.63;;;-144.67;100.00
47522;BME280;32291;52.010;4.446;2023-08-21T01:27:13;78351.75;;;-144.67;100.00
47522;BME280;32291;52.010;4.446;2023-08-21T01:28:17;78338.91;;;-144.67;100.00
47522;BME280;32291;52.010;4.446;2023-08-21T01:29:19;78343.19;;;-144.67;100.00
47522;BME280;32291;52.010;4.446;2023-08-21T01:30:22;78343.19;;;-144.67;100.00
47522;BME280;32291;52.010;4.446;2023-08-21T01:31:35;78349.63;;;-144.67;100.00
47522;BME280;32291;52.010;4.446;2023-08-21T01:33:06;78353.91;;;-144.67;100.00
47522;BME280;32291;52.010;4.446;2023-08-21T01:34:14;78351.75;;;-144.67;100.00
47522;BME280;32291;52.010;4.446;2023-08-21T01:35:20;78353.91;;;-144.67;100.00
47522;BME280;32291;52.010;4.446;2023-08-21T01:36:28;78356.03;;;-144.67;100.00
47522;BME280;32291;52.010;4.446;2023-08-21T01:37:35;78351.75;;;-144.67;100.00
47522;BME280;32291;52.010;4.446;2023-08-21T01:38:38;78351.75;;;-144.67;100.00
47522;BME280;32291;52.010;4.446;2023-08-21T01:39:41;78356.03;;;-144.67;100.00
47522;BME280;32291;52.010;4.446;2023-08-21T01:40:46;78356.03;;;-144.67;100.00
47522;BME280;32291;52.010;4.446;2023-08-21T01:41:49;78360.31;;;-144.67;100.00
47522;BME280;32291;52.010;4.446;2023-08-21T01:42:57;78368.88;;;-144.67;100.00
47522;BME280;32291;52.010;4.446;2023-08-21T01:44:00;78371.03;;;-144.67;100.00
47522;BME280;32291;52.010;4.446;2023-08-21T01:45:02;78371.03;;;-144.67;100.00
47522;BME280;32291;52.010;4.446;2023-08-21T01:46:12;78377.44;;;-144.67;100.00
47522;BME280;32291;52.010;4.446;2023-08-21T01:47:19;78375.31;;;-144.67;100.00
47522;BME280;32291;52.010;4.446;2023-08-21T01:48:22;78379.59;;;-144.67;100.00
47522;BME280;32291;52.010;4.446;2023-08-21T01:49:24;78386.03;;;-144.67;100.00
47522;BME280;32291;52.010;4.446;2023-08-21T01:50:34;78375.31;;;-144.67;100.00
47522;BME280;32291;52.010;4.446;2023-08-21T01:51:36;78386.03;;;-144.67;100.00
47522;BME280;32291;52.010;4.446;2023-08-21T01:52:39;78388.16;;;-144.67;100.00
47522;BME280;32291;52.010;4.446;2023-08-21T01:53:41;78383.88;;;-144.67;100.00
47522;BME280;32291;52.010;4.446;2023-08-21T01:54:44;78390.31;;;-144.67;100.00
47522;BME280;32291;52.010;4.446;2023-08-21T01:55:46;78386.03;;;-144.67;100.00
47522;BME280;32291;52.010;4.446;2023-08-21T01:56:48;78381.72;;;-144.67;100.00
47522;BME280;32291;52.010;4.446;2023-08-21T01:57:50;78386.03;;;-144.67;100.00
47522;BME280;32291;52.010;4.446;2023-08-21T01:58:53;78383.88;;;-144.67;100.00
47522;BME280;32291;52.010;4.446;2023-08-21T01:59:58;78381.72;;;-144.67;100.00
47522;BME280;32291;52.010;4.446;2023-08-21T02:01:01;78383.88;;;-144.67;100.00
47522;BME280;32291;52.010;4.446;2023-08-21T02:02:03;78381.72;;;-144.67;100.00
47522;BME280;32291;52.010;4.446;2023-08-21T02:03:05;78386.03;;;-144.67;100.00
47522;BME280;32291;52.010;4.446;2023-08-21T02:04:08;78383.88;;;-144.67;100.00
47522;BME280;32291;52.010;4.446;2023-08-21T02:05:10;78381.72;;;-144.67;100.00
47522;BME280;32291;52.010;4.446;2023-08-21T02:06:12;78379.59;;;-144.67;100.00
47522;BME280;32291;52.010;4.446;2023-08-21T02:07:14;78386.03;;;-144.67;100.00
47522;BME280;32291;52.010;4.446;2023-08-21T02:08:17;78383.88;;;-144.67;100.00
47522;BME280;32291;52.010;4.446;2023-08-21T02:09:19;78381.72;;;-144.67;100.00
47522;BME280;32291;52.010;4.446;2023-08-21T02:10:26;78390.31;;;-144.67;100.00
47522;BME280;32291;52.010;4.446;2023-08-21T02:11:29;78390.31;;;-144.67;100.00
47522;BME280;32291;52.010;4.446;2023-08-21T02:12:31;78390.31;;;-144.67;100.00
47522;BME280;32291;52.010;4.446;2023-08-21T02:13:33;78398.88;;;-144.67;100.00
47522;BME280;32291;52.010;4.446;2023-08-21T02:14:36;78390.31;;;-144.67;100.00
47522;BME280;32291;52.010;4.446;2023-08-21T02:15:39;78390.31;;;-144.67;100.00
47522;BME280;32291;52.010;4.446;2023-08-21T02:16:41;78394.59;;;-144.67;100.00
47522;BME280;32291;52.010;4.446;2023-08-21T02:17:43;78392.44;;;-144.67;100.00
47522;BME280;32291;52.010;4.446;2023-08-21T02:18:46;78390.31;;;-144.67;100.00
47522;BME280;32291;52.010;4.446;2023-08-21T02:19:53;78394.59;;;-144.67;100.00
47522;BME280;32291;52.010;4.446;2023-08-21T02:20:56;78394.59;;;-144.67;100.00
47522;BME280;32291;52.010;4.446;2023-08-21T02:21:58;78398.88;;;-144.67;100.00
47522;BME280;32291;52.010;4.446;2023-08-21T02:23:01;78403.16;;;-144.67;100.00
47522;BME280;32291;52.010;4.446;2023-08-21T02:24:03;78403.16;;;-144.67;100.00
47522;BME280;32291;52.010;4.446;2023-08-21T02:25:06;78411.72;;;-144.67;100.00
47522;BME280;32291;52.010;4.446;2023-08-21T02:26:13;78411.72;;;-144.67;100.00
47522;BME280;32291;52.010;4.446;2023-08-21T02:27:17;78411.72;;;-144.67;100.00
47522;BME280;32291;52.010;4.446;2023-08-21T02:28:22;78416.00;;;-144.67;100.00
47522;BME280;32291;52.010;4.446;2023-08-21T02:29:26;78403.16;;;-144.67;100.00
47522;BME280;32291;52.010;4.446;2023-08-21T02:30:28;78405.28;;;-144.67;100.00
47522;BME280;32291;52.010;4.446;2023-08-21T02:31:30;78405.28;;;-144.67;100.00
47522;BME280;32291;52.010;4.446;2023-08-21T02:32:37;78407.44;;;-144.67;100.00
47522;BME280;32291;52.010;4.446;2023-08-21T02:33:47;78407.44;;;-144.67;100.00
47522;BME280;32291;52.010;4.446;2023-08-21T02:34:49;78407.44;;;-144.67;100.00
47522;BME280;32291;52.010;4.446;2023-08-21T02:35:51;78403.16;;;-144.67;100.00
47522;BME280;32291;52.010;4.446;2023-08-21T02:36:54;78405.28;;;-144.67;100.00
47522;BME280;32291;52.010;4.446;2023-08-21T02:38:01;78407.44;;;-144.67;100.00
47522;BME280;32291;52.010;4.446;2023-08-21T02:39:09;78403.16;;;-144.67;100.00
47522;BME280;32291;52.010;4.446;2023-08-21T02:40:11;78411.72;;;-144.67;100.00
47522;BME280;32291;52.010;4.446;2023-08-21T02:41:18;78407.44;;;-144.67;100.00
47522;BME280;32291;52.010;4.446;2023-08-21T02:42:25;78409.56;;;-144.67;100.00
47522;BME280;32291;52.010;4.446;2023-08-21T02:43:33;78416.00;;;-144.67;100.00
47522;BME280;32291;52.010;4.446;2023-08-21T02:44:40;78416.00;;;-144.67;100.00
47522;BME280;32291;52.010;4.446;2023-08-21T02:45:47;78420.28;;;-144.67;100.00
47522;BME280;32291;52.010;4.446;2023-08-21T02:46:50;78418.13;;;-144.67;100.00
47522;BME280;32291;52.010;4.446;2023-08-21T02:47:56;78424.56;;;-144.67;100.00
47522;BME280;32291;52.010;4.446;2023-08-21T02:49:03;78424.56;;;-144.67;100.00
47522;BME280;32291;52.010;4.446;2023-08-21T02:50:09;78424.56;;;-144.67;100.00
47522;BME280;32291;52.010;4.446;2023-08-21T02:51:12;78433.13;;;-144.67;100.00
47522;BME280;32291;52.010;4.446;2023-08-21T02:52:19;78433.13;;;-144.67;100.00
47522;BME280;32291;52.010;4.446;2023-08-21T02:53:21;78433.13;;;-144.67;100.00
47522;BME280;32291;52.010;4.446;2023-08-21T02:54:28;78433.13;;;-144.67;100.00
47522;BME280;32291;52.010;4.446;2023-08-21T02:55:35;78435.25;;;-144.67;100.00
47522;BME280;32291;52.010;4.446;2023-08-21T02:56:42;78428.84;;;-144.67;100.00
47522;BME280;32291;52.010;4.446;2023-08-21T02:57:49;78435.25;;;-144.67;100.00
47522;BME280;32291;52.010;4.446;2023-08-21T02:58:52;78433.13;;;-144.67;100.00
47522;BME280;32291;52.010;4.446;2023-08-21T02:59:55;78437.41;;;-144.67;100.00
47522;BME280;32291;52.010;4.446;2023-08-21T03:01:05;78433.13;;;-144.67;100.00
47522;BME280;32291;52.010;4.446;2023-08-21T03:02:08;78441.69;;;-144.67;100.00
47522;BME280;32291;52.010;4.446;2023-08-21T03:03:14;78435.25;;;-144.67;100.00
47522;BME280;32291;52.010;4.446;2023-08-21T03:04:17;78443.81;;;-144.67;100.00
47522;BME280;32291;52.010;4.446;2023-08-21T03:05:27;78437.41;;;-144.67;100.00
47522;BME280;32291;52.010;4.446;2023-08-21T03:06:29;78445.97;;;-144.67;100.00
47522;BME280;32291;52.010;4.446;2023-08-21T03:07:32;78437.41;;;-144.67;100.00
47522;BME280;32291;52.010;4.446;2023-08-21T03:08:34;78437.41;;;-144.67;100.00
47522;BME280;32291;52.010;4.446;2023-08-21T03:09:38;78435.25;;;-144.67;100.00
47522;BME280;32291;52.010;4.446;2023-08-21T03:10:41;78433.13;;;-144.67;100.00
47522;BME280;32291;52.010;4.446;2023-08-21T03:11:43;78435.25;;;-144.67;100.00
47522;BME280;32291;52.010;4.446;2023-08-21T03:12:46;78439.53;;;-144.67;100.00
47522;BME280;32291;52.010;4.446;2023-08-21T03:13:53;78437.41;;;-144.67;100.00
47522;BME280;32291;52.010;4.446;2023-08-21T03:14:58;78445.97;;;-144.67;100.00
47522;BME280;32291;52.010;4.446;2023-08-21T03:16:05;78439.53;;;-144.67;100.00
47522;BME280;32291;52.010;4.446;2023-08-21T03:17:08;78433.13;;;-144.67;100.00
47522;BME280;32291;52.010;4.446;2023-08-21T03:18:15;78437.41;;;-144.67;100.00
47522;BME280;32291;52.010;4.446;2023-08-21T03:19:18;78435.25;;;-144.67;100.00
47522;BME280;32291;52.010;4.446;2023-08-21T03:20:20;78439.53;;;-144.67;100.00
47522;BME280;32291;52.010;4.446;2023-08-21T03:21:23;78435.25;;;-144.67;100.00
47522;BME280;32291;52.010;4.446;2023-08-21T03:22:28;78437.41;;;-144.67;100.00
47522;BME280;32291;52.010;4.446;2023-08-21T03:23:31;78437.41;;;-144.67;100.00
47522;BME280;32291;52.010;4.446;2023-08-21T03:24:33;78441.69;;;-144.67;100.00
47522;BME280;32291;52.010;4.446;2023-08-21T03:25:36;78441.69;;;-144.67;100.00
47522;BME280;32291;52.010;4.446;2023-08-21T03:26:38;78450.25;;;-144.67;100.00
47522;BME280;32291;52.010;4.446;2023-08-21T03:27:45;78441.69;;;-144.67;100.00
47522;BME280;32291;52.010;4.446;2023-08-21T03:28:55;78445.97;;;-144.67;100.00
47522;BME280;32291;52.010;4.446;2023-08-21T03:29:58;78439.53;;;-144.67;100.00
47522;BME280;32291;52.010;4.446;2023-08-21T03:31:05;78452.38;;;-144.67;100.00
47522;BME280;32291;52.010;4.446;2023-08-21T03:32:07;78450.25;;;-144.67;100.00
47522;BME280;32291;52.010;4.446;2023-08-21T03:33:10;78452.38;;;-144.67;100.00
47522;BME280;32291;52.010;4.446;2023-08-21T03:34:12;78458.81;;;-144.67;100.00
47522;BME280;32291;52.010;4.446;2023-08-21T03:35:14;78460.94;;;-144.67;100.00
47522;BME280;32291;52.010;4.446;2023-08-21T03:36:21;78454.53;;;-144.67;100.00
47522;BME280;32291;52.010;4.446;2023-08-21T03:37:32;78456.66;;;-144.67;100.00
47522;BME280;32291;52.010;4.446;2023-08-21T03:38:39;78458.81;;;-144.67;100.00
47522;BME280;32291;52.010;4.446;2023-08-21T03:39:46;78456.66;;;-144.67;100.00
47522;BME280;32291;52.010;4.446;2023-08-21T03:40:48;78454.53;;;-144.67;100.00
47522;BME280;32291;52.010;4.446;2023-08-21T03:41:55;78458.81;;;-144.67;100.00
47522;BME280;32291;52.010;4.446;2023-08-21T03:42:57;78458.81;;;-144.67;100.00
47522;BME280;32291;52.010;4.446;2023-08-21T03:43:59;78463.09;;;-144.67;100.00
47522;BME280;32291;52.010;4.446;2023-08-21T03:45:03;78467.38;;;-144.67;100.00
47522;BME280;32291;52.010;4.446;2023-08-21T03:46:06;78467.38;;;-144.67;100.00
47522;BME280;32291;52.010;4.446;2023-08-21T03:47:13;78469.53;;;-144.67;100.00
47522;BME280;32291;52.010;4.446;2023-08-21T03:48:21;78471.66;;;-144.67;100.00
47522;BME280;32291;52.010;4.446;2023-08-21T03:49:29;78480.22;;;-144.67;100.00
47522;BME280;32291;52.010;4.446;2023-08-21T03:50:31;78475.94;;;-144.67;100.00
47522;BME280;32291;52.010;4.446;2023-08-21T03:51:39;78480.22;;;-144.67;100.00
47522;BME280;32291;52.010;4.446;2023-08-21T03:52:41;78482.38;;;-144.67;100.00
47522;BME280;32291;52.010;4.446;2023-08-21T03:53:43;78473.81;;;-144.67;100.00
47522;BME280;32291;52.010;4.446;2023-08-21T03:54:46;78473.81;;;-144.67;100.00
47522;BME280;32291;52.010;4.446;2023-08-21T03:55:48;78480.22;;;-144.67;100.00
47522;BME280;32291;52.010;4.446;2023-08-21T03:56:51;78471.66;;;-144.67;100.00
47522;BME280;32291;52.010;4.446;2023-08-21T03:57:55;78482.38;;;-144.67;100.00
47522;BME280;32291;52.010;4.446;2023-08-21T03:58:58;78480.22;;;-144.67;100.00
47522;BME280;32291;52.010;4.446;2023-08-21T04:00:03;78471.66;;;-144.67;100.00
47522;BME280;32291;52.010;4.446;2023-08-21T04:01:11;78480.22;;;-144.67;100.00
47522;BME280;32291;52.010;4.446;2023-08-21T04:02:18;78484.50;;;-144.67;100.00
47522;BME280;32291;52.010;4.446;2023-08-21T04:03:21;78475.94;;;-144.67;100.00
47522;BME280;32291;52.010;4.446;2023-08-21T04:04:23;78475.94;;;-144.67;100.00
47522;BME280;32291;52.010;4.446;2023-08-21T04:05:26;78471.66;;;-144.67;100.00
47522;BME280;32291;52.010;4.446;2023-08-21T04:06:33;78475.94;;;-144.67;100.00
47522;BME280;32291;52.010;4.446;2023-08-21T04:07:35;78478.09;;;-144.67;100.00
47522;BME280;32291;52.010;4.446;2023-08-21T04:08:37;78480.22;;;-144.67;100.00
47522;BME280;32291;52.010;4.446;2023-08-21T04:09:40;78482.38;;;-144.67;100.00
47522;BME280;32291;52.010;4.446;2023-08-21T04:10:45;78482.38;;;-144.67;100.00
47522;BME280;32291;52.010;4.446;2023-08-21T04:11:47;78480.22;;;-144.67;100.00
47522;BME280;32291;52.010;4.446;2023-08-21T04:12:50;78488.78;;;-144.67;100.00
47522;BME280;32291;52.010;4.446;2023-08-21T04:13:52;78488.78;;;-144.67;100.00
47522;BME280;32291;52.010;4.446;2023-08-21T04:14:59;78482.38;;;-144.67;100.00
47522;BME280;32291;52.010;4.446;2023-08-21T04:16:02;78490.94;;;-144.67;100.00
47522;BME280;32291;52.010;4.446;2023-08-21T04:17:04;78486.66;;;-144.67;100.00
47522;BME280;32291;52.010;4.446;2023-08-21T04:18:11;78493.06;;;-144.67;100.00
47522;BME280;32291;52.010;4.446;2023-08-21T04:19:14;78493.06;;;-144.67;100.00
47522;BME280;32291;52.010;4.446;2023-08-21T04:20:21;78493.06;;;-144.67;100.00
47522;BME280;32291;52.010;4.446;2023-08-21T04:21:26;78495.22;;;-144.67;100.00
47522;BME280;32291;52.010;4.446;2023-08-21T04:22:28;78497.34;;;-144.67;100.00
47522;BME280;32291;52.010;4.446;2023-08-21T04:23:31;78493.06;;;-144.67;100.00
47522;BME280;32291;52.010;4.446;2023-08-21T04:24:34;78501.63;;;-144.67;100.00
47522;BME280;32291;52.010;4.446;2023-08-21T04:25:36;78499.50;;;-144.67;100.00
47522;BME280;32291;52.010;4.446;2023-08-21T04:26:38;78497.34;;;-144.67;100.00
47522;BME280;32291;52.010;4.446;2023-08-21T04:27:42;78501.63;;;-144.67;100.00
47522;BME280;32291;52.010;4.446;2023-08-21T04:28:49;78501.63;;;-144.67;100.00
47522;BME280;32291;52.010;4.446;2023-08-21T04:29:53;78503.78;;;-144.67;100.00
47522;BME280;32291;52.010;4.446;2023-08-21T04:30:56;78497.34;;;-144.67;100.00
47522;BME280;32291;52.010;4.446;2023-08-21T04:32:04;78501.63;;;-144.67;100.00
47522;BME280;32291;52.010;4.446;2023-08-21T04:33:07;78499.50;;;-144.67;100.00
47522;BME280;32291;52.010;4.446;2023-08-21T04:34:19;78497.34;;;-144.67;100.00
47522;BME280;32291;52.010;4.446;2023-08-21T04:35:22;78505.91;;;-144.67;100.00
47522;BME280;32291;52.010;4.446;2023-08-21T04:36:28;78503.78;;;-144.67;100.00
47522;BME280;32291;52.010;4.446;2023-08-21T04:37:31;78505.91;;;-144.67;100.00
47522;BME280;32291;52.010;4.446;2023-08-21T04:38:33;78505.91;;;-144.67;100.00
47522;BME280;32291;52.010;4.446;2023-08-21T04:39:36;78505.91;;;-144.67;100.00
47522;BME280;32291;52.010;4.446;2023-08-21T04:40:38;78501.63;;;-144.67;100.00
47522;BME280;32291;52.010;4.446;2023-08-21T04:41:42;78505.91;;;-144.67;100.00
47522;BME280;32291;52.010;4.446;2023-08-21T04:42:47;78510.19;;;-144.67;100.00
47522;BME280;32291;52.010;4.446;2023-08-21T04:43:50;78501.63;;;-144.67;100.00
47522;BME280;32291;52.010;4.446;2023-08-21T04:44:53;78497.34;;;-144.67;100.00
47522;BME280;32291;52.010;4.446;2023-08-21T04:45:56;78508.06;;;-144.67;100.00
47522;BME280;32291;52.010;4.446;2023-08-21T04:47:24;78505.91;;;-144.67;100.00
47522;BME280;32291;52.010;4.446;2023-08-21T04:48:28;78508.06;;;-144.67;100.00
47522;BME280;32291;52.010;4.446;2023-08-21T04:49:31;78508.06;;;-144.67;100.00
47522;BME280;32291;52.010;4.446;2023-08-21T04:50:37;78510.19;;;-144.67;100.00
47522;BME280;32291;52.010;4.446;2023-08-21T04:51:46;78510.19;;;-144.67;100.00
47522;BME280;32291;52.010;4.446;2023-08-21T04:52:48;78514.47;;;-144.67;100.00
47522;BME280;32291;52.010;4.446;2023-08-21T04:53:52;78505.91;;;-144.67;100.00
47522;BME280;32291;52.010;4.446;2023-08-21T04:54:57;78510.19;;;-144.67;100.00
47522;BME280;32291;52.010;4.446;2023-08-21T04:55:59;78512.34;;;-144.67;100.00
47522;BME280;32291;52.010;4.446;2023-08-21T04:57:05;78510.19;;;-144.67;100.00
47522;BME280;32291;52.010;4.446;2023-08-21T04:58:10;78510.19;;;-144.67;100.00
47522;BME280;32291;52.010;4.446;2023-08-21T04:59:16;78510.19;;;-144.67;100.00
47522;BME280;32291;52.010;4.446;2023-08-21T05:00:23;78508.06;;;-144.67;100.00
47522;BME280;32291;52.010;4.446;2023-08-21T05:01:25;78508.06;;;-144.67;100.00
47522;BME280;32291;52.010;4.446;2023-08-21T05:02:28;78510.19;;;-144.67;100.00
47522;BME280;32291;52.010;4.446;2023-08-21T05:03:31;78510.19;;;-144.67;100.00
47522;BME280;32291;52.010;4.446;2023-08-21T05:04:38;78505.91;;;-144.67;100.00
47522;BME280;32291;52.010;4.446;2023-08-21T05:05:41;78505.91;;;-144.67;100.00
47522;BME280;32291;52.010;4.446;2023-08-21T05:06:48;78510.19;;;-144.67;100.00
47522;BME280;32291;52.010;4.446;2023-08-21T05:07:52;78505.91;;;-144.67;100.00
47522;BME280;32291;52.010;4.446;2023-08-21T05:08:57;78508.06;;;-144.67;100.00
47522;BME280;32291;52.010;4.446;2023-08-21T05:10:06;78508.06;;;-144.67;100.00
47522;BME280;32291;52.010;4.446;2023-08-21T05:11:17;78510.19;;;-144.67;100.00
47522;BME280;32291;52.010;4.446;2023-08-21T05:12:24;78508.06;;;-144.67;100.00
47522;BME280;32291;52.010;4.446;2023-08-21T05:13:30;78514.47;;;-144.67;100.00
47522;BME280;32291;52.010;4.446;2023-08-21T05:14:38;78505.91;;;-144.67;100.00
47522;BME280;32291;52.010;4.446;2023-08-21T05:15:55;78508.06;;;-144.67;100.00
47522;BME280;32291;52.010;4.446;2023-08-21T05:16:58;78508.06;;;-144.67;100.00
47522;BME280;32291;52.010;4.446;2023-08-21T05:18:01;78501.63;;;-144.67;100.00
47522;BME280;32291;52.010;4.446;2023-08-21T05:19:04;78508.06;;;-144.67;100.00
47522;BME280;32291;52.010;4.446;2023-08-21T05:20:12;78503.78;;;-144.67;100.00
47522;BME280;32291;52.010;4.446;2023-08-21T05:21:16;78503.78;;;-144.67;100.00
47522;BME280;32291;52.010;4.446;2023-08-21T05:22:19;78497.34;;;-144.67;100.00
47522;BME280;32291;52.010;4.446;2023-08-21T05:23:26;78503.78;;;-144.67;100.00
47522;BME280;32291;52.010;4.446;2023-08-21T05:24:29;78501.63;;;-144.67;100.00
47522;BME280;32291;52.010;4.446;2023-08-21T05:25:36;78495.22;;;-144.67;100.00
47522;BME280;32291;52.010;4.446;2023-08-21T05:26:39;78495.22;;;-144.67;100.00
47522;BME280;32291;52.010;4.446;2023-08-21T05:27:45;78499.50;;;-144.67;100.00
47522;BME280;32291;52.010;4.446;2023-08-21T05:28:52;78490.94;;;-144.67;100.00
47522;BME280;32291;52.010;4.446;2023-08-21T05:29:58;78488.78;;;-144.67;100.00
47522;BME280;32291;52.010;4.446;2023-08-21T05:31:01;78490.94;;;-144.67;100.00
47522;BME280;32291;52.010;4.446;2023-08-21T05:32:06;78486.66;;;-144.67;100.00
47522;BME280;32291;52.010;4.446;2023-08-21T05:33:09;78484.50;;;-144.67;100.00